ETH684 HAAB-ZSPD
Flight info
| Callsign | ETH684 |
|---|---|
| Flight time | N/A |
| Altitude | 35000 |
| Route | NIDEG1B NIDEG UB535 TORBA T701 ULALI P751 LADIB/N0495F370 P751 BBB G450 CEA B465 CTG A599 CTG25/N0487F390 A599 LINSO/K0896S1190 A599 SGM A581 WHA R343 EKIMU |
| Aircraft | A359/H-SPCMNB2ABCDEFGHIJLMNOP/LB1D1 |
Departure
| Time | 2026-05-07 22:31 |
|---|---|
| Airport | Addis Ababa Bole International Airport (HAAB) |
Arrival
| Time | N/A |
|---|---|
| Airport | Shanghai Pudong International Airport (ZSPD) |
| Time | Latitude | Longitude | Altitude | Speed | Heading |
|---|---|---|---|---|---|
| 2026-05-07 22:06 | 8.98194 | 38.79538 | 7711 ft | 0 kts | 344° |
| 2026-05-07 22:14 | 8.98177 | 38.79543 | 7662 ft | 4 kts | 344° |
| 2026-05-07 22:14 | 8.98151 | 38.79550 | 7649 ft | 4 kts | 345° |
| 2026-05-07 22:14 | 8.98125 | 38.79557 | 7651 ft | 4 kts | 345° |
| 2026-05-07 22:15 | 8.98103 | 38.79565 | 7652 ft | 4 kts | 314° |
| 2026-05-07 22:15 | 8.98097 | 38.79586 | 7653 ft | 4 kts | 255° |
| 2026-05-07 22:15 | 8.98103 | 38.79605 | 7651 ft | 0 kts | 253° |
| 2026-05-07 22:16 | 8.98102 | 38.79605 | 7651 ft | 0 kts | 253° |
| 2026-05-07 22:20 | 8.98101 | 38.79600 | 7651 ft | 4 kts | 254° |
| 2026-05-07 22:20 | 8.98087 | 38.79590 | 7654 ft | 2 kts | 205° |
| 2026-05-07 22:20 | 8.98073 | 38.79601 | 7654 ft | 4 kts | 111° |
| 2026-05-07 22:21 | 8.98109 | 38.79632 | 7661 ft | 13 kts | 28° |
| 2026-05-07 22:21 | 8.98175 | 38.79697 | 7633 ft | 13 kts | 68° |
| 2026-05-07 22:21 | 8.98141 | 38.79757 | 7633 ft | 10 kts | 155° |
| 2026-05-07 22:21 | 8.98082 | 38.79780 | 7633 ft | 8 kts | 166° |
| 2026-05-07 22:22 | 8.98029 | 38.79791 | 7634 ft | 7 kts | 167° |
| 2026-05-07 22:22 | 8.97984 | 38.79802 | 7632 ft | 6 kts | 166° |
| 2026-05-07 22:22 | 8.97978 | 38.79804 | 7632 ft | 0 kts | 166° |
| 2026-05-07 22:26 | 8.97965 | 38.79807 | 7628 ft | 3 kts | 165° |
| 2026-05-07 22:26 | 8.97932 | 38.79816 | 7625 ft | 9 kts | 165° |
| 2026-05-07 22:27 | 8.97885 | 38.79881 | 7622 ft | 17 kts | 88° |
| 2026-05-07 22:27 | 8.97925 | 38.80025 | 7622 ft | 26 kts | 73° |
| 2026-05-07 22:27 | 8.97980 | 38.80225 | 7624 ft | 31 kts | 74° |
| 2026-05-07 22:27 | 8.98038 | 38.80430 | 7623 ft | 30 kts | 73° |
| 2026-05-07 22:28 | 8.98094 | 38.80623 | 7621 ft | 28 kts | 73° |
| 2026-05-07 22:28 | 8.98148 | 38.80805 | 7619 ft | 26 kts | 73° |
| 2026-05-07 22:28 | 8.98197 | 38.80972 | 7620 ft | 24 kts | 73° |
| 2026-05-07 22:28 | 8.98243 | 38.81125 | 7620 ft | 22 kts | 73° |
| 2026-05-07 22:29 | 8.98283 | 38.81267 | 7617 ft | 20 kts | 74° |
| 2026-05-07 22:29 | 8.98320 | 38.81397 | 7618 ft | 18 kts | 82° |
| 2026-05-07 22:29 | 8.98282 | 38.81507 | 7618 ft | 16 kts | 122° |
| 2026-05-07 22:29 | 8.98207 | 38.81569 | 7618 ft | 13 kts | 183° |
| 2026-05-07 22:30 | 8.98159 | 38.81509 | 7615 ft | 11 kts | 247° |
| 2026-05-07 22:30 | 8.98118 | 38.81378 | 7614 ft | 38 kts | 254° |
| 2026-05-07 22:30 | 8.98004 | 38.80990 | 7613 ft | 76 kts | 253° |
| 2026-05-07 22:30 | 8.97820 | 38.80366 | 7617 ft | 109 kts | 253° |
| 2026-05-07 22:31 | 8.97561 | 38.79486 | 7604 ft | 152 kts | 253° |
| 2026-05-07 22:31 | 8.97229 | 38.78324 | 7699 ft | 181 kts | 255° |
| 2026-05-07 22:31 | 8.96905 | 38.77167 | 8314 ft | 163 kts | 253° |
| 2026-05-07 22:31 | 8.96529 | 38.76021 | 8453 ft | 180 kts | 244° |
| 2026-05-07 22:32 | 8.95740 | 38.75067 | 8677 ft | 187 kts | 213° |
| 2026-05-07 22:32 | 8.94529 | 38.74602 | 8818 ft | 187 kts | 179° |
| 2026-05-07 22:32 | 8.93322 | 38.74948 | 8982 ft | 183 kts | 137° |
| 2026-05-07 22:32 | 8.92712 | 38.76006 | 9187 ft | 178 kts | 96° |
| 2026-05-07 22:33 | 8.92895 | 38.77227 | 9489 ft | 179 kts | 69° |
| 2026-05-07 22:33 | 8.93417 | 38.78363 | 9917 ft | 176 kts | 70° |
| 2026-05-07 22:33 | 8.93880 | 38.79514 | 10201 ft | 178 kts | 68° |
| 2026-05-07 22:33 | 8.94390 | 38.80651 | 10549 ft | 177 kts | 67° |
| 2026-05-07 22:34 | 8.94518 | 38.81912 | 10618 ft | 191 kts | 101° |
| 2026-05-07 22:34 | 8.93847 | 38.83105 | 10837 ft | 200 kts | 129° |
| 2026-05-07 22:34 | 8.92807 | 38.84008 | 11248 ft | 196 kts | 135° |
| 2026-05-07 22:34 | 8.92005 | 38.85091 | 11515 ft | 195 kts | 115° |
| 2026-05-07 22:35 | 8.91347 | 38.86335 | 11638 ft | 206 kts | 111° |
| 2026-05-07 22:35 | 8.91067 | 38.87761 | 11792 ft | 212 kts | 85° |
| 2026-05-07 22:35 | 8.91349 | 38.89248 | 11969 ft | 221 kts | 74° |
| 2026-05-07 22:35 | 8.91785 | 38.90782 | 12133 ft | 233 kts | 73° |
| 2026-05-07 22:36 | 8.92246 | 38.92390 | 12324 ft | 243 kts | 73° |
| 2026-05-07 22:36 | 8.92711 | 38.94049 | 12613 ft | 247 kts | 74° |
| 2026-05-07 22:36 | 8.93181 | 38.95753 | 12842 ft | 258 kts | 73° |
| 2026-05-07 22:36 | 8.93665 | 38.97525 | 13003 ft | 271 kts | 73° |
| 2026-05-07 22:37 | 8.94175 | 38.99405 | 13202 ft | 284 kts | 74° |
| 2026-05-07 22:37 | 8.94707 | 39.01373 | 13409 ft | 296 kts | 74° |
| 2026-05-07 22:37 | 8.95262 | 39.03428 | 13624 ft | 309 kts | 74° |
| 2026-05-07 22:37 | 8.95839 | 39.05559 | 13831 ft | 320 kts | 73° |
| 2026-05-07 22:38 | 8.96437 | 39.07772 | 14032 ft | 332 kts | 74° |
| 2026-05-07 22:38 | 8.97053 | 39.10063 | 14219 ft | 343 kts | 74° |
| 2026-05-07 22:38 | 8.97688 | 39.12421 | 14384 ft | 353 kts | 74° |
| 2026-05-07 22:38 | 8.98331 | 39.14811 | 14592 ft | 361 kts | 74° |
| 2026-05-07 22:39 | 8.99000 | 39.17297 | 14777 ft | 370 kts | 74° |
| 2026-05-07 22:39 | 8.99683 | 39.19834 | 14946 ft | 378 kts | 74° |
| 2026-05-07 22:39 | 9.00380 | 39.22427 | 15106 ft | 386 kts | 74° |
| 2026-05-07 22:39 | 9.01092 | 39.25071 | 15261 ft | 394 kts | 74° |
| 2026-05-07 22:40 | 9.01819 | 39.27774 | 15394 ft | 401 kts | 74° |
| 2026-05-07 22:40 | 9.02557 | 39.30522 | 15561 ft | 407 kts | 74° |
| 2026-05-07 22:40 | 9.03293 | 39.33261 | 15820 ft | 410 kts | 74° |
| 2026-05-07 22:40 | 9.04045 | 39.36056 | 16107 ft | 412 kts | 74° |
| 2026-05-07 22:41 | 9.04797 | 39.38859 | 16435 ft | 414 kts | 74° |
| 2026-05-07 22:41 | 9.05557 | 39.41671 | 16678 ft | 416 kts | 73° |
| 2026-05-07 22:41 | 9.06532 | 39.44433 | 16941 ft | 418 kts | 65° |
| 2026-05-07 22:41 | 9.07955 | 39.47000 | 17201 ft | 421 kts | 57° |
| 2026-05-07 22:42 | 9.09582 | 39.49474 | 17447 ft | 423 kts | 56° |
| 2026-05-07 22:42 | 9.11239 | 39.51941 | 17724 ft | 425 kts | 55° |
| 2026-05-07 22:42 | 9.12903 | 39.54423 | 18033 ft | 427 kts | 55° |
| 2026-05-07 22:42 | 9.14545 | 39.56880 | 18305 ft | 429 kts | 56° |
| 2026-05-07 22:43 | 9.16220 | 39.59391 | 18517 ft | 431 kts | 56° |
| 2026-05-07 22:43 | 9.17897 | 39.61908 | 18754 ft | 433 kts | 56° |
| 2026-05-07 22:43 | 9.19585 | 39.64444 | 19000 ft | 435 kts | 56° |
| 2026-05-07 22:43 | 9.21275 | 39.66983 | 19262 ft | 436 kts | 56° |
| 2026-05-07 22:44 | 9.22973 | 39.69537 | 19463 ft | 438 kts | 56° |
| 2026-05-07 22:44 | 9.24679 | 39.72101 | 19699 ft | 439 kts | 56° |
| 2026-05-07 22:44 | 9.26386 | 39.74669 | 19932 ft | 441 kts | 56° |
| 2026-05-07 22:44 | 9.28098 | 39.77245 | 20133 ft | 443 kts | 56° |
| 2026-05-07 22:45 | 9.29801 | 39.79809 | 20361 ft | 444 kts | 56° |
| 2026-05-07 22:45 | 9.31527 | 39.82407 | 20608 ft | 446 kts | 56° |
| 2026-05-07 22:45 | 9.33263 | 39.85020 | 20850 ft | 447 kts | 56° |
| 2026-05-07 22:45 | 9.34998 | 39.87633 | 21062 ft | 449 kts | 56° |
| 2026-05-07 22:46 | 9.36742 | 39.90261 | 21250 ft | 451 kts | 56° |
| 2026-05-07 22:46 | 9.38495 | 39.92902 | 21496 ft | 452 kts | 56° |
| 2026-05-07 22:46 | 9.40254 | 39.95554 | 21713 ft | 454 kts | 56° |
| 2026-05-07 22:46 | 9.42015 | 39.98207 | 21921 ft | 456 kts | 56° |
| 2026-05-07 22:47 | 9.43762 | 40.00841 | 22141 ft | 458 kts | 56° |
| 2026-05-07 22:47 | 9.45539 | 40.03521 | 22360 ft | 459 kts | 56° |
| 2026-05-07 22:47 | 9.47326 | 40.06215 | 22527 ft | 462 kts | 56° |
| 2026-05-07 22:47 | 9.49117 | 40.08918 | 22768 ft | 464 kts | 56° |
| 2026-05-07 22:48 | 9.50920 | 40.11638 | 22993 ft | 465 kts | 56° |
| 2026-05-07 22:48 | 9.52720 | 40.14354 | 23201 ft | 467 kts | 56° |
| 2026-05-07 22:48 | 9.54542 | 40.17106 | 23421 ft | 469 kts | 56° |
| 2026-05-07 22:48 | 9.56355 | 40.19843 | 23680 ft | 468 kts | 56° |
| 2026-05-07 22:49 | 9.58170 | 40.22584 | 23879 ft | 469 kts | 56° |
| 2026-05-07 22:49 | 9.59997 | 40.25344 | 24047 ft | 472 kts | 56° |
| 2026-05-07 22:49 | 9.61804 | 40.28074 | 24174 ft | 475 kts | 57° |
| 2026-05-07 22:49 | 9.63645 | 40.30856 | 24347 ft | 477 kts | 57° |
| 2026-05-07 22:50 | 9.65498 | 40.33656 | 24552 ft | 478 kts | 56° |
| 2026-05-07 22:50 | 9.67478 | 40.36370 | 24746 ft | 480 kts | 50° |
| 2026-05-07 22:50 | 9.69692 | 40.38905 | 24945 ft | 482 kts | 48° |
| 2026-05-07 22:50 | 9.71967 | 40.41412 | 25149 ft | 483 kts | 48° |
| 2026-05-07 22:51 | 9.74247 | 40.43920 | 25374 ft | 485 kts | 48° |
| 2026-05-07 22:51 | 9.76537 | 40.46444 | 25603 ft | 487 kts | 48° |
| 2026-05-07 22:51 | 9.78829 | 40.48972 | 25816 ft | 488 kts | 48° |
| 2026-05-07 22:51 | 9.81100 | 40.51480 | 26030 ft | 490 kts | 48° |
| 2026-05-07 22:52 | 9.83412 | 40.54033 | 26268 ft | 492 kts | 48° |
| 2026-05-07 22:52 | 9.85726 | 40.56590 | 26500 ft | 494 kts | 48° |
| 2026-05-07 22:52 | 9.88056 | 40.59166 | 26729 ft | 496 kts | 48° |
| 2026-05-07 22:52 | 9.90393 | 40.61750 | 26966 ft | 498 kts | 48° |
| 2026-05-07 22:53 | 9.92738 | 40.64344 | 27205 ft | 500 kts | 48° |
| 2026-05-07 22:53 | 9.95094 | 40.66950 | 27443 ft | 502 kts | 48° |
| 2026-05-07 22:53 | 9.97454 | 40.69562 | 27682 ft | 504 kts | 48° |
| 2026-05-07 22:53 | 9.99827 | 40.72188 | 27900 ft | 506 kts | 48° |
| 2026-05-07 22:54 | 10.02179 | 40.74792 | 28121 ft | 508 kts | 48° |
| 2026-05-07 22:54 | 10.04571 | 40.77440 | 28301 ft | 511 kts | 48° |
| 2026-05-07 22:54 | 10.06977 | 40.80105 | 28499 ft | 513 kts | 48° |
| 2026-05-07 22:54 | 10.09393 | 40.82782 | 28718 ft | 515 kts | 48° |
| 2026-05-07 22:55 | 10.11813 | 40.85463 | 28918 ft | 516 kts | 48° |
| 2026-05-07 22:55 | 10.14241 | 40.88155 | 29194 ft | 516 kts | 48° |
| 2026-05-07 22:55 | 10.16665 | 40.90842 | 29496 ft | 516 kts | 48° |
| 2026-05-07 22:55 | 10.19083 | 40.93524 | 29755 ft | 517 kts | 47° |
| 2026-05-07 22:56 | 10.21494 | 40.96198 | 29839 ft | 521 kts | 47° |
| 2026-05-07 22:56 | 10.23924 | 40.98894 | 30142 ft | 519 kts | 47° |
| 2026-05-07 22:56 | 10.26369 | 41.01607 | 30407 ft | 518 kts | 47° |
| 2026-05-07 22:56 | 10.28793 | 41.04298 | 30691 ft | 516 kts | 47° |
| 2026-05-07 22:57 | 10.31220 | 41.06993 | 30913 ft | 516 kts | 47° |
| 2026-05-07 22:57 | 10.33638 | 41.09678 | 31146 ft | 516 kts | 47° |
| 2026-05-07 22:57 | 10.36062 | 41.12370 | 31372 ft | 516 kts | 47° |
| 2026-05-07 22:57 | 10.38482 | 41.15059 | 31608 ft | 515 kts | 47° |
| 2026-05-07 22:58 | 10.40863 | 41.17706 | 31852 ft | 514 kts | 47° |
| 2026-05-07 22:58 | 10.43270 | 41.20382 | 32065 ft | 514 kts | 47° |
| 2026-05-07 22:58 | 10.45682 | 41.23064 | 32260 ft | 514 kts | 47° |
| 2026-05-07 22:58 | 10.48092 | 41.25744 | 32479 ft | 513 kts | 47° |
| 2026-05-07 22:59 | 10.50498 | 41.28421 | 32692 ft | 513 kts | 47° |
| 2026-05-07 22:59 | 10.52909 | 41.31103 | 32834 ft | 514 kts | 47° |
| 2026-05-07 22:59 | 10.55319 | 41.33786 | 32998 ft | 514 kts | 47° |
| 2026-05-07 22:59 | 10.57728 | 41.36468 | 33237 ft | 513 kts | 47° |
| 2026-05-07 23:00 | 10.60088 | 41.39186 | 33446 ft | 513 kts | 51° |
| 2026-05-07 23:00 | 10.62100 | 41.42103 | 33582 ft | 513 kts | 57° |
| 2026-05-07 23:00 | 10.63965 | 41.45214 | 33753 ft | 513 kts | 59° |
| 2026-05-07 23:00 | 10.65755 | 41.48347 | 33914 ft | 513 kts | 60° |
| 2026-05-07 23:01 | 10.67518 | 41.51499 | 34079 ft | 512 kts | 60° |
| 2026-05-07 23:01 | 10.69273 | 41.54649 | 34257 ft | 511 kts | 60° |
| 2026-05-07 23:01 | 10.71029 | 41.57790 | 34419 ft | 510 kts | 60° |
| 2026-05-07 23:01 | 10.72788 | 41.60918 | 34623 ft | 509 kts | 60° |
| 2026-05-07 23:02 | 10.73951 | 41.62978 | 34670 ft | 510 kts | 59° |
| 2026-05-07 23:02 | 10.78078 | 41.70263 | 34832 ft | 513 kts | 59° |
| 2026-05-07 23:03 | 10.81664 | 41.76583 | 34834 ft | 517 kts | 59° |
| 2026-05-07 23:03 | 10.84643 | 41.81838 | 34836 ft | 516 kts | 59° |
| 2026-05-07 23:04 | 10.88223 | 41.88161 | 34843 ft | 515 kts | 59° |
| 2026-05-07 23:04 | 10.92379 | 41.95506 | 34838 ft | 515 kts | 59° |
| 2026-05-07 23:05 | 10.95370 | 42.00793 | 34832 ft | 515 kts | 59° |
| 2026-05-07 23:05 | 10.98917 | 42.07069 | 34829 ft | 514 kts | 59° |
| 2026-05-07 23:06 | 11.02484 | 42.13383 | 34835 ft | 514 kts | 59° |
| 2026-05-07 23:06 | 11.06028 | 42.19703 | 34832 ft | 514 kts | 60° |
| 2026-05-07 23:07 | 11.10069 | 42.27109 | 34839 ft | 515 kts | 60° |
| 2026-05-07 23:07 | 11.12956 | 42.32419 | 34848 ft | 515 kts | 60° |
| 2026-05-07 23:08 | 11.16435 | 42.38797 | 34843 ft | 515 kts | 60° |
| 2026-05-07 23:08 | 11.19915 | 42.45169 | 34854 ft | 515 kts | 60° |
| 2026-05-07 23:09 | 11.23395 | 42.51541 | 34848 ft | 514 kts | 60° |
| 2026-05-07 23:09 | 11.26871 | 42.57910 | 34854 ft | 514 kts | 60° |
| 2026-05-07 23:10 | 11.30322 | 42.64238 | 34856 ft | 514 kts | 60° |
| 2026-05-07 23:10 | 11.33788 | 42.70599 | 34854 ft | 514 kts | 60° |
| 2026-05-07 23:11 | 11.37255 | 42.76965 | 34854 ft | 514 kts | 60° |
| 2026-05-07 23:11 | 11.40725 | 42.83340 | 34843 ft | 515 kts | 60° |
| 2026-05-07 23:12 | 11.44171 | 42.89677 | 34842 ft | 515 kts | 60° |
| 2026-05-07 23:12 | 11.47641 | 42.96061 | 34837 ft | 515 kts | 60° |
| 2026-05-07 23:13 | 11.51111 | 43.02448 | 34834 ft | 515 kts | 60° |
| 2026-05-07 23:13 | 11.54607 | 43.08810 | 34825 ft | 514 kts | 57° |
| 2026-05-07 23:14 | 11.58489 | 43.14872 | 34820 ft | 514 kts | 56° |
| 2026-05-07 23:14 | 11.62482 | 43.20922 | 34814 ft | 515 kts | 55° |
| 2026-05-07 23:15 | 11.66493 | 43.26974 | 34811 ft | 514 kts | 55° |
| 2026-05-07 23:15 | 11.70491 | 43.33020 | 34811 ft | 514 kts | 55° |
| 2026-05-07 23:16 | 11.74453 | 43.39026 | 34808 ft | 514 kts | 56° |
| 2026-05-07 23:16 | 11.78441 | 43.45077 | 34807 ft | 514 kts | 56° |
| 2026-05-07 23:17 | 11.82429 | 43.51133 | 34809 ft | 514 kts | 56° |
| 2026-05-07 23:17 | 11.86418 | 43.57192 | 34806 ft | 514 kts | 56° |
| 2026-05-07 23:18 | 11.90414 | 43.63233 | 34804 ft | 514 kts | 55° |
| 2026-05-07 23:18 | 11.94454 | 43.69182 | 34805 ft | 512 kts | 54° |
| 2026-05-07 23:19 | 11.98517 | 43.75148 | 34802 ft | 512 kts | 54° |
| 2026-05-07 23:19 | 12.02575 | 43.81133 | 34803 ft | 513 kts | 55° |
| 2026-05-07 23:20 | 12.06624 | 43.87124 | 34803 ft | 512 kts | 55° |